Time;durP1;ratioP1;P1;durP2;ratioP2;P2;SDS_P1;SDS_P2;PMS_P1;PMS_P2;Temp;Humidity;BMP_temperature;BMP_pressure;BME280_temperature;BME280_humidity;BME280_pressure;Samples;Min_cycle;Max_cycle;Signal;HPM_P1;HPM_P2
2022/05/23 00:01:28;;;;;;;4.15;1.90;;;;;;;18.66;37.47;100083.09;5392564;32;34667;-73
2022/05/23 00:04:30;;;;;;;2.60;1.50;;;;;;;18.98;36.70;100088.59;5430896;32;34973;-71
2022/05/23 00:07:36;;;;;;;6.50;2.05;;;;;;;19.25;36.40;100085.56;5434250;32;34516;-72
2022/05/23 00:10:38;;;;;;;3.72;1.90;;;;;;;18.56;37.17;100075.00;5404956;32;36419;-71
2022/05/23 00:13:40;;;;;;;7.43;2.33;;;;;;;18.62;37.32;100085.16;5414840;32;34633;-71
2022/05/23 00:16:44;;;;;;;3.43;2.00;;;;;;;18.46;37.71;100081.97;5410401;32;44698;-75
2022/05/23 00:19:47;;;;;;;4.72;1.90;;;;;;;19.17;36.14;100090.66;5431462;32;35312;-74
2022/05/23 00:22:50;;;;;;;;;;;;;;;18.81;36.84;100095.28;5405299;32;35116;-75
2022/05/23 00:25:52;;;;;;;3.25;1.70;;;;;;;18.31;37.85;100099.97;5417030;32;33875;-74
2022/05/23 00:28:54;;;;;;;4.53;1.92;;;;;;;17.88;38.91;100094.34;5422230;32;34544;-71
2022/05/23 00:35:17;;;;;;;5.70;2.62;;;;;;;17.56;39.82;100100.16;5436216;32;46031;-76
2022/05/23 00:38:24;;;;;;;8.20;2.10;;;;;;;17.42;40.35;100099.47;5407692;32;35006;-72
2022/05/23 00:45:06;;;;;;;4.47;2.15;;;;;;;17.61;40.72;100110.47;5424310;32;34731;-76
2022/05/23 00:48:09;;;;;;;4.15;2.10;;;;;;;17.60;41.05;100104.31;5418510;32;33641;-71
2022/05/23 00:51:13;;;;;;;6.03;2.25;;;;;;;17.59;41.18;100107.09;5440069;32;46898;-71
2022/05/23 00:54:16;;;;;;;6.78;2.60;;;;;;;17.38;41.71;100092.69;5418797;32;33667;-71
2022/05/23 00:57:23;;;;;;;4.10;2.00;;;;;;;17.25;42.44;100098.88;5436413;32;35089;-74
2022/05/23 01:00:25;;;;;;;6.30;2.20;;;;;;;17.32;42.24;100101.94;5438740;32;35161;-71
2022/05/23 01:03:27;;;;;;;5.50;2.53;;;;;;;17.28;42.36;100103.97;5428182;32;34077;-72
2022/05/23 01:06:30;;;;;;;6.43;2.42;;;;;;;17.12;42.96;100103.34;5444128;32;34965;-74
2022/05/23 01:09:32;;;;;;;;;;;;;;;16.76;43.95;100096.19;5405132;32;36673;-70
2022/05/23 01:12:35;;;;;;;4.93;2.20;;;;;;;17.24;42.94;100091.87;5415507;32;34791;-73
2022/05/23 01:15:37;;;;;;;4.00;2.30;;;;;;;17.16;43.35;100102.19;5417615;32;35297;-72
2022/05/23 01:18:40;;;;;;;4.78;2.40;;;;;;;18.23;40.47;100081.09;5438504;32;33599;-73
2022/05/23 01:21:58;;;;;;;4.72;2.20;;;;;;;18.32;40.59;100095.50;5442979;32;46505;-73
2022/05/23 01:25:18;;;;;;;5.73;2.60;;;;;;;17.47;42.58;100100.00;5418657;32;34925;-71
2022/05/23 01:28:21;;;;;;;4.12;2.17;;;;;;;17.43;42.86;100088.72;5416720;32;36936;-74
2022/05/23 01:31:23;;;;;;;5.95;2.20;;;;;;;16.84;44.65;100103.59;5421991;32;35902;-74
2022/05/23 01:34:26;;;;;;;6.83;2.40;;;;;;;16.27;46.46;100093.31;5419918;32;34558;-71
2022/05/23 01:37:29;;;;;;;5.87;2.97;;;;;;;16.19;46.71;100102.66;5436985;32;35312;-73
2022/05/23 01:40:31;;;;;;;9.65;3.47;;;;;;;16.14;46.81;100099.44;5390557;32;37110;-71
2022/05/23 01:43:34;;;;;;;12.77;2.97;;;;;;;16.79;45.15;100091.50;5435516;32;34506;-70
2022/05/23 01:46:37;;;;;;;5.37;2.60;;;;;;;16.74;45.20;100083.03;5407100;32;34958;-73
2022/05/23 01:49:41;;;;;;;6.12;2.65;;;;;;;16.88;44.94;100078.56;5434120;32;35647;-71
2022/05/23 01:52:43;;;;;;;6.43;2.50;;;;;;;16.60;45.54;100088.37;5422206;32;44731;-75
2022/05/23 01:55:45;;;;;;;4.73;2.20;;;;;;;16.72;45.21;100078.75;5404951;32;34321;-71
2022/05/23 02:02:09;;;;;;;4.80;2.50;;;;;;;16.76;44.88;100064.34;5423775;32;34751;-72
2022/05/23 02:05:11;;;;;;;12.03;3.53;;;;;;;17.68;42.71;100058.56;5444244;32;44422;-73
2022/05/23 02:08:17;;;;;;;7.10;2.80;;;;;;;16.63;45.04;100069.59;5405903;32;35315;-72
2022/05/23 02:11:19;;;;;;;5.63;2.80;;;;;;;16.55;45.63;100057.81;5419476;32;34938;-73
2022/05/23 02:14:21;;;;;;;5.20;2.60;;;;;;;17.28;44.51;100064.13;5416430;32;36381;-73
2022/05/23 02:17:23;;;;;;;5.28;2.55;;;;;;;16.70;45.90;100070.91;5428350;32;35205;-71
2022/05/23 02:20:26;;;;;;;5.27;2.43;;;;;;;16.71;46.02;100067.28;5446645;32;35201;-70
2022/05/23 02:23:28;;;;;;;5.25;2.10;;;;;;;16.96;45.77;100060.28;5418696;32;34836;-74
2022/05/23 02:26:31;;;;;;;6.30;3.08;;;;;;;17.52;44.76;100055.34;5433200;32;34744;-70
2022/05/23 02:29:34;;;;;;;4.97;2.65;;;;;;;17.78;44.04;100062.28;5418805;32;35370;-75
2022/05/23 02:32:37;;;;;;;5.47;2.60;;;;;;;17.80;43.79;100057.69;5427504;32;34566;-74
2022/05/23 02:35:39;;;;;;;7.47;2.57;;;;;;;16.11;48.23;100073.16;5434885;32;35227;-70
2022/05/23 02:38:41;;;;;;;6.53;2.87;;;;;;;16.21;48.32;100071.56;5406063;32;44590;-73
2022/05/23 02:41:43;;;;;;;8.65;2.92;;;;;;;15.64;50.33;100073.63;5436851;32;34102;-70
2022/05/23 02:44:48;;;;;;;8.93;3.30;;;;;;;15.31;51.01;100063.38;5420921;32;34824;-72
2022/05/23 02:47:51;;;;;;;7.20;3.10;;;;;;;15.62;50.28;100070.22;5435976;32;35350;-73
2022/05/23 02:50:53;;;;;;;6.97;2.70;;;;;;;15.53;50.68;100066.34;5421007;32;34792;-71
2022/05/23 02:53:55;;;;;;;9.00;4.30;;;;;;;16.65;47.62;100067.69;5430447;32;34879;-73
2022/05/23 02:56:58;;;;;;;9.53;2.90;;;;;;;16.47;47.41;100072.44;5445529;32;34114;-74
2022/05/23 03:00:00;;;;;;;5.50;2.55;;;;;;;16.25;47.81;100083.69;5433050;32;35314;-74
2022/05/23 03:03:03;;;;;;;6.55;2.47;;;;;;;15.80;49.03;100076.97;5423135;32;34056;-71
2022/05/23 03:06:05;;;;;;;;;;;;;;;15.63;49.20;100079.88;5428349;32;35058;-71
2022/05/23 03:09:08;;;;;;;7.33;2.93;;;;;;;15.77;48.81;100065.72;5446621;32;36746;-73
2022/05/23 03:12:11;;;;;;;;;;;;;;;15.80;48.91;100069.03;5411092;32;37932;-73
2022/05/23 03:15:13;;;;;;;6.53;2.93;;;;;;;16.92;45.71;100061.44;5413107;32;34265;-70
2022/05/23 03:18:16;;;;;;;7.27;2.67;;;;;;;16.16;47.50;100078.13;5433527;32;34891;-72
2022/05/23 03:27:59;;;;;;;8.13;2.80;;;;;;;16.06;49.66;100080.56;5406475;32;34692;-75
2022/05/23 03:31:03;;;;;;;8.10;3.10;;;;;;;16.71;47.56;100069.09;5419171;32;35437;-70
2022/05/23 03:34:06;;;;;;;6.53;3.00;;;;;;;15.91;49.41;100090.38;5434635;32;34673;-73
2022/05/23 03:37:08;;;;;;;5.18;2.65;;;;;;;16.30;48.81;100087.84;5419531;32;33024;-73
2022/05/23 03:40:10;;;;;;;6.83;4.53;;;;;;;16.66;47.43;100082.66;5420886;32;35104;-72
2022/05/23 03:43:14;;;;;;;7.60;3.58;;;;;;;17.05;46.35;100073.72;5405857;32;44528;-72
2022/05/23 03:46:16;;;;;;;7.50;3.47;;;;;;;16.89;46.02;100078.44;5436557;32;34175;-73
2022/05/23 03:49:19;;;;;;;12.03;4.00;;;;;;;16.99;45.62;100075.97;5422162;32;34851;-75
2022/05/23 03:52:21;;;;;;;10.73;2.93;;;;;;;15.64;49.77;100086.88;5407480;32;34515;-71
2022/05/23 03:55:23;;;;;;;12.67;3.73;;;;;;;15.90;49.37;100080.72;5423346;32;34584;-71
2022/05/23 03:58:27;;;;;;;9.43;3.30;;;;;;;15.71;49.85;100072.28;5420871;32;34131;-71
2022/05/23 04:01:30;;;;;;;5.47;2.97;;;;;;;15.78;49.37;100078.00;5437205;32;34732;-73
2022/05/23 04:04:33;;;;;;;10.23;4.07;;;;;;;16.20;48.26;100072.53;5405708;32;35956;-74
2022/05/23 04:07:42;;;;;;;9.00;3.60;;;;;;;15.61;49.86;100074.66;5446850;32;44424;-73
2022/05/23 04:10:44;;;;;;;5.50;3.22;;;;;;;15.91;49.40;100084.25;5698133;26;35023;-92
2022/05/23 04:13:47;;;;;;;6.85;3.22;;;;;;;16.76;47.24;100075.78;5449006;32;35484;-91
2022/05/23 04:16:51;;;;;;;9.57;3.50;;;;;;;16.04;49.32;100082.47;5407494;32;34300;-91
2022/05/23 04:19:54;;;;;;;8.00;3.77;;;;;;;16.80;47.58;100071.09;5396718;32;35406;-93
2022/05/23 04:23:01;;;;;;;6.03;3.22;;;;;;;16.98;46.87;100066.31;5403322;32;35594;-93
2022/05/23 04:26:09;;;;;;;10.55;3.55;;;;;;;17.01;46.93;100069.62;5417239;32;37265;-92
2022/05/23 04:29:13;;;;;;;10.88;3.67;;;;;;;16.58;48.57;100070.87;5418343;32;34480;-92
2022/05/23 04:35:37;;;;;;;8.25;3.60;;;;;;;17.73;45.88;100080.38;5401074;32;35759;-94
2022/05/23 04:38:39;;;;;;;9.85;3.75;;;;;;;19.66;41.05;100062.75;5404623;32;34654;-92
2022/05/23 04:41:42;;;;;;;6.95;2.92;;;;;;;19.58;41.21;100060.72;5408873;32;34832;-92
2022/05/23 04:44:44;;;;;;;8.40;3.08;;;;;;;20.67;38.77;100059.59;5424313;32;37017;-94
2022/05/23 04:51:08;;;;;;;6.62;3.08;;;;;;;20.00;39.36;100052.81;5429863;32;34582;-92
2022/05/23 04:54:11;;;;;;;15.52;4.15;;;;;;;20.17;39.52;100072.75;5396652;32;34379;-94
2022/05/23 04:57:14;;;;;;;5.72;3.00;;;;;;;21.07;37.53;100052.47;5378353;32;39296;-95
2022/05/23 05:00:19;;;;;;;9.55;3.00;;;;;;;21.28;37.18;100043.53;5424705;32;35236;-93
2022/05/23 05:03:21;;;;;;;9.02;3.10;;;;;;;21.53;36.14;100044.91;5407532;32;35103;-94
2022/05/23 05:06:29;;;;;;;6.50;2.90;;;;;;;20.30;39.08;100076.06;5402638;32;35255;-95
2022/05/23 05:09:37;;;;;;;9.10;3.33;;;;;;;21.90;35.63;100075.34;5417703;27;304041;-77
2022/05/23 05:12:45;;;;;;;5.65;2.78;;;;;;;22.28;34.91;100089.72;5411370;32;44569;-76
2022/05/23 05:15:47;;;;;;;10.20;3.42;;;;;;;21.49;36.60;100088.91;5407716;32;35300;-77
2022/05/23 05:18:50;;;;;;;12.07;3.53;;;;;;;21.66;35.56;100085.59;5378980;32;34577;-78
2022/05/23 05:21:52;;;;;;;9.25;4.30;;;;;;;22.51;33.96;100082.22;5401497;32;34584;-78
2022/05/23 05:24:54;;;;;;;8.25;2.95;;;;;;;21.81;35.39;100084.19;5390760;32;35486;-78
2022/05/23 05:27:56;;;;;;;7.07;2.83;;;;;;;23.35;32.54;100076.03;5398549;32;34347;-77
2022/05/23 05:31:17;;;;;;;;;;;;;;;22.96;32.57;100071.69;5399084;32;34393;-76
2022/05/23 05:34:33;;;;;;;14.95;3.25;;;;;;;23.28;31.95;100074.94;5402008;32;44499;-76
2022/05/23 05:37:43;;;;;;;6.07;2.37;;;;;;;22.77;33.71;100071.72;5415404;32;34644;-76
2022/05/23 05:40:50;;;;;;;9.20;2.72;;;;;;;22.74;32.96;100076.56;5396584;32;46218;-77
2022/05/23 05:44:03;;;;;;;6.05;2.50;;;;;;;23.90;30.78;100070.63;5412625;32;34044;-75
2022/05/23 05:47:08;;;;;;;9.02;2.78;;;;;;;25.23;28.89;100067.72;5383657;32;34133;-73
2022/05/23 05:50:30;;;;;;;5.25;2.78;;;;;;;26.24;27.31;100065.75;5379719;32;35326;-79
2022/05/23 05:53:33;;;;;;;9.88;3.15;;;;;;;24.36;30.50;100079.44;5405104;32;34040;-78
2022/05/23 05:56:35;;;;;;;6.82;2.37;;;;;;;25.86;27.43;100068.09;5346071;32;34156;-77
2022/05/23 05:59:37;;;;;;;5.85;2.08;;;;;;;25.35;26.81;100063.72;5385336;32;34120;-77
2022/05/23 06:02:40;;;;;;;8.57;2.20;;;;;;;25.23;26.82;100057.81;5378524;32;35676;-83
2022/05/23 06:12:44;;;;;;;5.07;2.37;;;;;;;26.87;24.20;100067.72;5316289;32;45667;-75
2022/05/23 06:15:46;;;;;;;;;;;;;;;24.57;26.94;100088.00;5416663;32;35491;-76
2022/05/23 06:18:49;;;;;;;5.65;1.83;;;;;;;25.43;26.32;100079.06;5396506;32;34314;-85
2022/05/23 06:21:54;;;;;;;6.18;1.80;;;;;;;27.44;23.12;100074.78;5391682;32;34436;-71
2022/05/23 06:24:56;;;;;;;4.62;1.80;;;;;;;27.18;22.58;100080.47;5409432;32;35284;-77
2022/05/23 06:27:58;;;;;;;;;;;;;;;26.88;23.06;100082.88;5380580;32;34045;-84
2022/05/23 06:31:01;;;;;;;6.10;1.87;;;;;;;24.89;25.47;100084.66;5419222;32;34790;-72
2022/05/23 06:34:03;;;;;;;9.00;2.10;;;;;;;24.99;26.01;100085.41;5390438;32;35193;-76
2022/05/23 06:37:05;;;;;;;7.05;1.95;;;;;;;23.16;28.32;100085.00;5414167;32;35234;-71
2022/05/23 06:40:08;;;;;;;;;;;;;;;25.43;25.68;100073.66;5401391;32;35337;-86
2022/05/23 06:43:10;;;;;;;8.00;2.10;;;;;;;25.63;25.08;100077.75;5404597;32;35452;-84
2022/05/23 06:46:13;;;;;;;4.18;1.87;;;;;;;26.10;24.42;100069.97;5415517;32;32998;-73
2022/05/23 06:49:16;;;;;;;5.47;2.00;;;;;;;26.50;24.12;100062.06;5387586;32;44654;-76
2022/05/23 06:52:19;;;;;;;3.05;1.77;;;;;;;26.17;24.32;100059.38;5389994;32;35101;-83
2022/05/23 06:55:21;;;;;;;4.80;1.98;;;;;;;26.00;24.59;100050.44;5371481;32;35247;-86
2022/05/23 06:58:23;;;;;;;5.65;1.62;;;;;;;27.58;22.11;100043.50;5405183;32;32626;-82
2022/05/23 07:01:26;;;;;;;4.97;1.70;;;;;;;28.67;20.76;100039.63;5402032;32;34711;-76
2022/05/23 07:12:19;;;;;;;4.45;1.70;;;;;;;29.27;20.09;100030.44;5387675;32;34062;-76
2022/05/23 07:14:32;;;;;;;9.52;3.10;;;;;;;29.24;19.88;100039.81;5397035;32;35987;-75
2022/05/23 07:17:35;;;;;;;6.65;1.77;;;;;;;28.52;20.50;100044.97;5387872;32;35385;-81
2022/05/23 07:20:41;;;;;;;8.32;2.05;;;;;;;26.52;23.25;100033.94;5388513;32;35859;-76
2022/05/23 07:23:46;;;;;;;4.20;1.75;;;;;;;27.08;22.87;100032.12;5398499;32;44559;-84
2022/05/23 07:26:49;;;;;;;2.67;1.50;;;;;;;28.88;19.71;100024.31;5372718;32;258114;-78
2022/05/23 07:29:51;;;;;;;17.42;2.33;;;;;;;25.59;23.59;100028.81;5413160;32;35252;-80
2022/05/23 07:32:53;;;;;;;6.75;1.55;;;;;;;27.56;21.95;100029.31;5386625;32;33714;-75
2022/05/23 07:35:57;;;;;;;5.80;1.65;;;;;;;27.03;22.18;100020.97;5408018;32;35680;-90
2022/05/23 07:38:59;;;;;;;4.45;1.45;;;;;;;29.22;19.73;100020.19;5390381;32;36247;-82
2022/05/23 07:42:03;;;;;;;6.93;1.95;;;;;;;28.43;20.19;100033.41;5377773;32;34083;-82
2022/05/23 07:45:07;;;;;;;5.70;1.80;;;;;;;28.62;20.22;100020.41;5409370;32;35398;-73
2022/05/23 07:48:09;;;;;;;8.20;1.70;;;;;;;27.75;21.54;100023.50;5399830;32;34009;-81
2022/05/23 07:51:13;;;;;;;7.55;1.50;;;;;;;29.97;18.89;100008.09;5415838;32;34134;-73
2022/05/23 08:00:56;;;;;;;3.28;2.03;;;;;;;29.12;19.96;100019.66;5406956;32;34084;-73
2022/05/23 08:03:58;;;;;;;2.92;1.40;;;;;;;28.59;20.30;100017.00;5401568;32;34340;-73
2022/05/23 08:07:01;;;;;;;3.95;1.33;;;;;;;28.37;20.63;100012.53;5409942;32;36601;-73
2022/05/23 08:10:04;;;;;;;3.70;1.52;;;;;;;26.87;22.58;100016.50;5384025;32;34045;-82
2022/05/23 08:13:10;;;;;;;3.47;1.30;;;;;;;27.71;21.61;100009.53;5376212;32;34082;-74
2022/05/23 08:16:12;;;;;;;4.22;1.60;;;;;;;30.74;17.89;99997.25;5409449;32;34138;-73
2022/05/23 08:19:14;;;;;;;4.82;1.62;;;;;;;28.78;19.57;99994.00;5402654;32;34685;-80
2022/05/23 08:22:17;;;;;;;7.20;2.40;;;;;;;29.75;18.99;99998.28;5415126;32;35371;-82
2022/05/23 08:25:20;;;;;;;12.13;2.35;;;;;;;31.02;17.70;99985.47;5385030;32;35217;-77
2022/05/23 08:28:22;;;;;;;4.78;1.98;;;;;;;28.80;19.64;99991.13;5397450;32;34846;-74
2022/05/23 08:31:24;;;;;;;6.40;1.70;;;;;;;28.52;19.78;99983.66;5404650;32;33943;-77
2022/05/23 08:34:26;;;;;;;7.50;2.30;;;;;;;28.54;20.04;99981.62;5381766;32;34092;-77
2022/05/23 08:37:28;;;;;;;3.95;1.67;;;;;;;31.46;16.86;99978.78;5414131;32;36328;-72
2022/05/23 08:41:09;;;;;;;5.65;1.60;;;;;;;29.03;18.68;99981.03;5392618;32;34764;-71
2022/05/23 08:44:36;;;;;;;10.13;3.17;;;;;;;30.07;17.84;99973.38;5413809;32;35290;-70
2022/05/23 08:47:48;;;;;;;5.75;1.35;;;;;;;28.35;19.61;99965.94;5395571;32;34622;-70
2022/05/23 08:51:10;;;;;;;10.05;1.60;;;;;;;30.87;16.76;99974.78;5405403;32;45581;-75
2022/05/23 08:54:26;;;;;;;6.35;1.75;;;;;;;32.12;15.40;99961.69;5402270;32;34058;-90
2022/05/23 08:58:00;;;;;;;5.75;2.10;;;;;;;29.32;17.86;99961.19;5373377;32;36000;-73
2022/05/23 09:01:11;;;;;;;5.12;1.60;;;;;;;31.16;16.03;99951.91;5395692;32;35304;-91
2022/05/23 09:04:18;;;;;;;6.55;1.60;;;;;;;30.19;16.93;99944.72;5397139;32;35313;-72
2022/05/23 09:07:44;;;;;;;6.10;1.40;;;;;;;30.23;16.67;99934.34;5386413;32;46745;-84
2022/05/23 09:10:54;;;;;;;7.18;1.85;;;;;;;30.53;16.73;99936.78;5417308;32;45918;-92
2022/05/23 09:13:58;;;;;;;4.10;1.80;;;;;;;31.02;15.87;99940.19;5390316;32;33101;-84
2022/05/23 09:17:00;;;;;;;3.35;1.62;;;;;;;30.82;15.85;99936.56;5394408;32;34110;-83
2022/05/23 09:20:07;;;;;;;2.62;1.50;;;;;;;31.45;15.04;99931.78;5402859;32;34211;-89
2022/05/23 09:23:23;;;;;;;2.85;1.37;;;;;;;29.79;16.96;99934.59;5390149;32;33909;-73
2022/05/23 09:26:32;;;;;;;5.37;1.58;;;;;;;33.39;14.04;99931.19;5389403;32;35676;-79
2022/05/23 09:29:34;;;;;;;3.10;1.30;;;;;;;30.19;16.90;99928.47;5388000;32;34967;-75
2022/05/23 09:32:44;;;;;;;4.75;1.58;;;;;;;31.49;15.51;99932.19;5390896;32;33916;-78
2022/05/23 09:35:55;;;;;;;3.60;1.65;;;;;;;30.39;16.44;99930.47;5404018;32;44587;-79
2022/05/23 09:39:01;;;;;;;5.87;1.53;;;;;;;32.24;14.68;99930.94;5402768;32;35034;-75
2022/05/23 09:49:08;;;;;;;4.62;1.73;;;;;;;33.07;14.31;99917.53;5395405;32;36653;-73
2022/05/23 09:52:27;;;;;;;8.75;2.00;;;;;;;31.91;15.04;99927.44;5412265;32;35174;-72
2022/05/23 09:55:35;;;;;;;7.28;1.73;;;;;;;31.10;15.81;99924.75;5385936;32;34109;-83
2022/05/23 09:58:38;;;;;;;5.15;1.60;;;;;;;30.44;16.65;99925.28;5394770;32;33897;-72
2022/05/23 10:01:40;;;;;;;5.55;1.77;;;;;;;30.33;16.64;99917.69;5403320;32;33989;-79
2022/05/23 10:04:45;;;;;;;4.70;1.60;;;;;;;30.61;16.36;99910.37;5400687;32;33617;-72
2022/05/23 10:07:49;;;;;;;9.57;5.80;;;;;;;27.82;19.39;99932.63;5413930;32;44428;-73
2022/05/23 10:10:54;;;;;;;3.97;1.70;;;;;;;29.93;17.19;99912.81;5386409;32;33808;-71
2022/05/23 10:13:59;;;;;;;6.72;1.80;;;;;;;31.83;15.80;99917.63;5405515;32;33898;-73
2022/05/23 10:17:01;;;;;;;8.52;1.85;;;;;;;29.09;18.64;99917.22;5396730;32;35672;-69
2022/05/23 10:20:20;;;;;;;6.03;1.80;;;;;;;28.46;19.53;99913.28;5415476;32;35242;-74
2022/05/23 10:23:26;;;;;;;4.70;1.98;;;;;;;28.04;19.87;99912.88;5407938;32;44138;-81
2022/05/23 10:26:33;;;;;;;6.12;2.40;;;;;;;28.59;18.83;99914.28;5398669;32;35355;-77
2022/05/23 10:29:57;;;;;;;10.30;2.42;;;;;;;27.44;20.05;99908.31;5410739;32;32026;-75
2022/05/23 10:33:08;;;;;;;6.82;2.20;;;;;;;30.26;17.53;99895.97;5383572;32;33859;-77
2022/05/23 10:36:19;;;;;;;3.80;1.70;;;;;;;30.96;16.62;99894.87;5397336;32;34128;-72
2022/05/23 10:43:09;;;;;;;4.57;1.85;;;;;;;29.95;18.42;99893.69;5385919;32;46087;-73
2022/05/23 10:46:13;;;;;;;4.15;1.70;;;;;;;29.94;18.27;99897.41;5414593;32;34945;-77
2022/05/23 10:49:24;;;;;;;4.87;1.87;;;;;;;30.84;17.76;99892.94;5388545;32;44432;-78
2022/05/23 10:52:45;;;;;;;4.78;1.62;;;;;;;30.76;17.35;99891.25;5396224;32;35177;-75
2022/05/23 10:56:03;;;;;;;6.18;1.90;;;;;;;30.62;17.78;99884.91;5362852;32;44492;-67
2022/05/23 10:59:32;;;;;;;5.80;1.85;;;;;;;30.68;17.65;99876.00;5396778;32;36271;-74
2022/05/23 11:03:02;;;;;;;9.52;2.00;;;;;;;30.14;18.17;99876.75;5397938;32;35363;-83
2022/05/23 11:06:35;;;;;;;6.25;2.08;;;;;;;30.30;18.34;99870.16;5401346;32;35707;-81
2022/05/23 11:10:00;;;;;;;5.80;1.70;;;;;;;30.55;17.86;99873.22;5399237;32;35422;-80
2022/05/23 11:13:25;;;;;;;7.28;2.10;;;;;;;29.46;19.00;99872.84;5407261;32;34434;-83
2022/05/23 11:16:37;;;;;;;4.85;1.87;;;;;;;29.06;19.75;99861.63;5414489;32;33989;-85
2022/05/23 11:19:48;;;;;;;5.30;1.77;;;;;;;29.87;18.57;99858.59;5402680;32;35421;-75
2022/05/23 11:23:04;;;;;;;3.92;1.77;;;;;;;31.73;16.96;99850.06;5413452;32;44563;-76
2022/05/23 11:26:10;;;;;;;4.35;1.70;;;;;;;31.97;16.62;99845.06;5388570;32;35026;-82
2022/05/23 11:36:09;;;;;;;8.38;1.73;;;;;;;30.06;18.48;99857.06;5397953;32;35295;-77
2022/05/23 11:39:46;;;;;;;5.57;1.73;;;;;;;31.13;17.21;99849.19;5401824;32;35634;-77
2022/05/23 11:42:49;;;;;;;7.47;2.30;;;;;;;30.13;18.26;99850.66;5403090;32;34270;-79
2022/05/23 11:45:57;;;;;;;3.70;1.60;;;;;;;28.16;20.45;99853.81;5405460;32;34595;-71
2022/05/23 11:49:00;;;;;;;4.78;1.92;;;;;;;29.91;18.37;99844.47;5413935;32;35167;-73
2022/05/23 11:52:16;;;;;;;5.35;1.70;;;;;;;28.81;19.86;99835.94;5403157;32;34171;-79
2022/05/23 11:55:55;;;;;;;5.72;1.75;;;;;;;29.90;18.64;99836.53;5387050;32;44580;-80
2022/05/23 11:58:59;;;;;;;3.53;1.85;;;;;;;28.77;19.92;99840.03;5410065;32;34343;-79
2022/05/23 12:02:07;;;;;;;5.10;1.70;;;;;;;28.92;19.67;99821.97;5400341;32;34045;-68
2022/05/23 12:05:12;;;;;;;8.65;1.90;;;;;;;28.49;20.21;99832.66;5414303;32;35496;-74
2022/05/23 12:08:28;;;;;;;3.35;1.77;;;;;;;28.58;20.15;99836.91;5390841;32;42891;-83
2022/05/23 12:11:45;;;;;;;5.37;1.90;;;;;;;27.66;21.37;99836.41;5408194;32;35999;-82
2022/05/23 12:14:47;;;;;;;4.65;2.40;;;;;;;28.62;20.31;99836.56;5401696;32;44125;-77
2022/05/23 12:17:58;;;;;;;4.22;1.60;;;;;;;28.25;20.48;99841.03;5401328;32;33851;-75
2022/05/23 12:21:06;;;;;;;6.35;1.90;;;;;;;28.03;20.90;99838.25;5417678;32;35616;-73
2022/05/23 12:24:19;;;;;;;4.93;2.00;;;;;;;27.11;22.04;99842.09;5400131;32;34186;-75
2022/05/23 12:27:44;;;;;;;6.43;2.20;;;;;;;25.92;23.23;99843.13;5389080;32;35467;-79
2022/05/23 12:31:07;;;;;;;5.60;1.80;;;;;;;26.72;22.37;99830.34;5417368;32;44527;-68
2022/05/23 12:34:12;;;;;;;5.20;1.90;;;;;;;27.99;20.90;99811.81;5402106;32;35466;-70
2022/05/23 12:37:28;;;;;;;3.30;1.77;;;;;;;27.62;21.36;99815.38;5416345;32;46541;-68
2022/05/23 12:40:32;;;;;;;5.35;2.12;;;;;;;28.27;20.32;99806.56;5405870;32;34152;-67
2022/05/23 12:43:54;;;;;;;7.47;2.30;;;;;;;27.28;21.34;99795.09;5390189;32;35306;-67
2022/05/23 12:47:16;;;;;;;3.80;1.80;;;;;;;27.73;21.13;99790.66;5419834;32;34209;-69
2022/05/23 12:50:41;;;;;;;6.47;1.67;;;;;;;27.46;21.39;99798.31;5403885;32;44900;-68
2022/05/23 12:54:16;;;;;;;4.18;1.90;;;;;;;26.93;21.94;99786.59;5412398;32;34474;-70
2022/05/23 12:57:49;;;;;;;4.55;1.80;;;;;;;25.98;22.83;99788.59;5393288;32;35696;-66
2022/05/23 13:01:10;;;;;;;6.35;1.90;;;;;;;27.61;21.15;99786.69;5404427;32;44263;-66
2022/05/23 13:04:23;;;;;;;6.45;2.05;;;;;;;27.00;21.77;99795.66;5411433;32;34205;-71
2022/05/23 13:07:44;;;;;;;11.05;2.20;;;;;;;27.12;21.85;99779.09;5379738;32;36141;-73
2022/05/23 13:10:58;;;;;;;4.68;1.70;;;;;;;27.75;21.35;99775.09;5405988;32;45024;-77
2022/05/23 13:14:01;;;;;;;4.25;1.80;;;;;;;26.30;22.92;99762.56;5405158;32;33203;-71
2022/05/23 13:17:03;;;;;;;6.10;2.15;;;;;;;27.16;21.85;99758.78;5395219;32;35373;-72
2022/05/23 13:23:46;;;;;;;9.60;2.15;;;;;;;27.66;21.09;99751.91;5406016;32;34131;-70
2022/05/23 13:26:57;;;;;;;4.65;1.65;;;;;;;26.85;22.27;99754.28;5396576;32;35188;-72
2022/05/23 13:30:02;;;;;;;9.20;2.40;;;;;;;27.29;21.73;99747.38;5412381;32;33819;-80
2022/05/23 13:33:09;;;;;;;3.80;1.70;;;;;;;26.80;22.33;99745.94;5387620;32;33887;-72
2022/05/23 13:36:12;;;;;;;4.80;2.00;;;;;;;26.66;22.60;99752.94;5411761;32;35187;-71
2022/05/23 13:39:17;;;;;;;5.32;2.10;;;;;;;26.67;22.62;99748.38;5406827;32;34370;-71
2022/05/23 13:42:25;;;;;;;3.62;1.77;;;;;;;27.09;22.22;99730.88;5388204;32;35293;-78
2022/05/23 13:45:27;;;;;;;4.75;1.73;;;;;;;27.30;22.01;99722.91;5417765;32;33940;-81
2022/05/23 13:48:42;;;;;;;5.18;1.90;;;;;;;27.75;21.23;99723.81;5373663;32;33037;-78
2022/05/23 13:51:59;;;;;;;4.05;1.73;;;;;;;27.61;20.77;99716.53;5413448;32;43498;-74
2022/05/23 13:55:07;;;;;;;2.45;1.67;;;;;;;27.56;20.85;99727.88;5389433;32;34140;-69
2022/05/23 13:58:15;;;;;;;6.97;1.67;;;;;;;27.21;21.38;99734.81;5394268;32;34461;-71
2022/05/23 14:01:19;;;;;;;5.15;1.90;;;;;;;27.39;21.12;99732.63;5413645;32;45087;-72
2022/05/23 14:04:25;;;;;;;4.85;1.83;;;;;;;27.85;20.73;99720.84;5388021;32;33965;-71
2022/05/23 14:07:32;;;;;;;4.70;1.77;;;;;;;27.17;21.55;99722.69;5404799;32;34147;-70
2022/05/23 14:10:44;;;;;;;5.25;1.95;;;;;;;26.17;22.69;99720.88;5387495;32;36655;-74
2022/05/23 14:13:46;;;;;;;3.30;1.87;;;;;;;26.78;22.35;99715.59;5399258;32;47369;-74
2022/05/23 14:17:02;;;;;;;4.65;1.73;;;;;;;27.94;20.91;99719.69;5396753;32;33940;-72
2022/05/23 14:20:24;;;;;;;5.07;1.80;;;;;;;28.12;20.70;99717.44;5403524;32;35148;-70
2022/05/23 14:23:32;;;;;;;4.80;2.10;;;;;;;28.09;20.80;99701.63;5412677;32;34163;-76
2022/05/23 14:26:35;;;;;;;3.62;1.92;;;;;;;26.92;22.49;99705.88;5387602;32;35457;-67
2022/05/23 14:29:37;;;;;;;8.13;3.03;;;;;;;27.65;21.72;99705.19;5381732;32;34175;-71
2022/05/23 14:32:40;;;;;;;;;;;;;;;28.22;20.72;99698.25;5396967;32;34231;-73
2022/05/23 14:35:59;;;;;;;5.20;1.87;;;;;;;28.21;20.50;99694.69;5402635;32;35469;-70
2022/05/23 14:39:06;;;;;;;7.82;2.30;;;;;;;26.08;23.47;99694.13;5398473;32;35280;-70
2022/05/23 14:42:27;;;;;;;3.15;2.12;;;;;;;27.54;21.69;99698.38;5372276;32;35544;-74
2022/05/23 14:45:29;;;;;;;5.70;2.05;;;;;;;27.86;21.27;99690.94;5389113;32;34034;-75
2022/05/23 14:48:33;;;;;;;5.22;1.90;;;;;;;27.53;21.82;99691.31;5394005;32;33024;-75
2022/05/23 14:51:38;;;;;;;5.15;2.08;;;;;;;27.94;21.49;99690.00;5397233;32;33925;-73
2022/05/23 15:01:40;;;;;;;4.95;2.00;;;;;;;26.26;23.55;99691.19;5401094;32;35324;-79
2022/05/23 15:04:42;;;;;;;6.18;2.22;;;;;;;25.78;24.38;99688.56;5402258;32;34535;-75
2022/05/23 15:07:45;;;;;;;8.57;2.60;;;;;;;26.29;23.94;99677.38;5387931;32;44459;-75
2022/05/23 15:10:47;;;;;;;5.50;2.15;;;;;;;25.97;24.11;99687.31;5416412;32;35008;-71
2022/05/23 15:13:52;;;;;;;4.60;2.30;;;;;;;25.47;24.79;99682.25;5385654;32;35279;-75
2022/05/23 15:16:55;;;;;;;6.18;2.12;;;;;;;25.49;24.92;99677.53;5397762;32;34092;-75
2022/05/23 15:19:57;;;;;;;5.20;2.35;;;;;;;26.00;24.30;99672.66;5391824;32;36262;-70
2022/05/23 15:22:59;;;;;;;;;;;;;;;26.48;23.72;99663.47;5384482;32;35221;-72
2022/05/23 15:26:04;;;;;;;5.62;2.50;;;;;;;26.43;24.04;99664.00;5397264;32;35056;-75
2022/05/23 15:29:07;;;;;;;5.80;2.53;;;;;;;26.50;23.81;99655.19;5386076;32;33999;-74
2022/05/23 15:32:09;;;;;;;3.12;2.15;;;;;;;26.29;24.07;99653.13;5398370;32;33818;-68
2022/05/23 15:35:14;;;;;;;5.72;2.33;;;;;;;26.14;24.33;99655.72;5402757;32;34320;-71
2022/05/23 15:38:16;;;;;;;7.32;2.37;;;;;;;25.48;25.33;99651.66;5387085;32;45104;-72
2022/05/23 15:41:19;;;;;;;;;;;;;;;25.98;24.52;99642.37;5403871;32;34068;-77
2022/05/23 15:44:28;;;;;;;5.32;2.40;;;;;;;25.98;24.67;99642.37;5384535;32;34238;-75
2022/05/23 15:47:30;;;;;;;7.03;2.50;;;;;;;25.92;24.56;99652.84;5399432;32;35272;-72
2022/05/23 15:50:33;;;;;;;6.47;2.40;;;;;;;25.99;24.79;99654.81;5386956;32;34059;-77